createdAt,value
2019-01-23T04:48:49.876Z,9.13
2019-01-23T04:51:34.822Z,9.40
2019-01-23T04:54:06.772Z,17.25
2019-01-23T04:56:34.386Z,8.98
2019-01-23T04:59:01.411Z,23.87
2019-01-23T05:01:28.140Z,11.43
2019-01-23T05:03:54.696Z,9.88
2019-01-23T05:06:26.076Z,7.12
2019-01-23T05:08:52.473Z,8.00
2019-01-23T05:11:19.041Z,10.82
2019-01-23T05:13:45.598Z,6.40
2019-01-23T05:16:12.011Z,7.35
2019-01-23T05:18:38.314Z,8.08
2019-01-23T05:21:10.872Z,3.52
2019-01-23T05:23:37.166Z,3.25
2019-01-23T05:26:03.468Z,2.77
2019-01-23T05:28:30.266Z,2.22
2019-01-23T05:30:56.553Z,1.20
2019-01-23T05:33:22.893Z,4.08
2019-01-23T05:35:49.277Z,7.22
2019-01-23T05:38:15.579Z,2.85
2019-01-23T05:40:42.132Z,2.20
2019-01-23T05:43:08.640Z,2.40
2019-01-23T05:45:35.188Z,5.75
2019-01-23T05:48:01.943Z,3.90
2019-01-23T05:50:28.847Z,3.85
2019-01-23T05:52:55.301Z,2.67
2019-01-23T05:55:21.725Z,3.17
2019-01-23T05:57:48.156Z,2.33
2019-01-23T06:00:17.438Z,3.45
2019-01-23T06:02:43.746Z,2.45
2019-01-23T06:05:10.268Z,9.83
2019-01-23T06:07:36.672Z,2.08
2019-01-23T06:10:05.806Z,6.50
2019-01-23T06:12:32.266Z,6.95
2019-01-23T06:14:58.647Z,3.15
2019-01-23T06:17:25.074Z,2.80
2019-01-23T06:19:51.506Z,3.92
2019-01-23T06:22:18.054Z,1.65
2019-01-23T06:24:44.680Z,1.85
2019-01-23T06:27:11.220Z,5.97
2019-01-23T06:29:37.772Z,2.50
2019-01-23T06:32:04.275Z,2.72
2019-01-23T06:34:30.601Z,1.98
2019-01-23T06:36:56.901Z,2.22
2019-01-23T06:39:23.202Z,2.67
2019-01-23T06:41:49.823Z,3.47
2019-01-23T06:44:16.339Z,4.50
2019-01-23T06:46:42.652Z,1.75
2019-01-23T06:49:09.539Z,5.97
2019-01-23T06:52:29.719Z,2.60
2019-01-23T06:54:56.138Z,4.42
2019-01-23T06:57:22.438Z,1.37
2019-01-23T06:59:48.857Z,2.08
2019-01-23T07:02:15.266Z,1.67
2019-01-23T07:04:42.289Z,0.70
2019-01-23T07:07:08.821Z,0.28
2019-01-23T07:09:35.352Z,0.45
2019-01-23T07:12:01.783Z,0.30
2019-01-23T07:14:28.198Z,0.82
2019-01-23T07:16:54.630Z,3.72
2019-01-23T07:19:20.941Z,1.00
2019-01-23T07:21:47.723Z,4.30
2019-01-23T07:24:14.154Z,1.55
2019-01-23T07:26:40.676Z,3.70
2019-01-23T07:29:07.100Z,3.15
2019-01-23T07:31:33.835Z,1.90
2019-01-23T07:34:00.150Z,2.02
2019-01-23T07:36:26.559Z,1.22
2019-01-23T07:38:52.849Z,3.12
2019-01-23T07:41:19.181Z,1.40
2019-01-23T07:43:45.691Z,1.75
2019-01-23T07:46:12.003Z,4.35
2019-01-23T07:48:38.429Z,2.62
2019-01-23T07:51:04.914Z,2.33
2019-01-23T07:53:31.302Z,1.67
2019-01-23T07:55:57.693Z,4.10
2019-01-23T07:58:24.113Z,4.72
2019-01-23T08:00:50.536Z,5.90
2019-01-23T08:03:16.847Z,3.33
2019-01-23T08:05:43.532Z,9.45
2019-01-23T08:08:10.046Z,1.65
2019-01-23T08:10:36.475Z,4.00
2019-01-23T08:13:03.200Z,3.72
2019-01-23T08:15:31.688Z,5.92
2019-01-23T08:17:58.422Z,1.98
2019-01-23T08:20:27.785Z,7.50
2019-01-23T08:22:54.297Z,1.98
2019-01-23T08:25:21.028Z,3.15
2019-01-23T08:27:47.550Z,1.90
2019-01-23T08:30:16.396Z,1.75
2019-01-23T08:32:43.021Z,2.35
2019-01-23T08:35:09.462Z,2.33
2019-01-23T08:37:35.926Z,2.10
2019-01-23T08:40:05.717Z,2.25
2019-01-23T08:42:32.347Z,2.25
2019-01-23T08:44:58.972Z,1.17
2019-01-23T08:47:25.263Z,3.00
2019-01-23T08:49:51.677Z,1.98
2019-01-23T08:52:18.157Z,1.67
2019-01-23T08:54:44.557Z,2.45
2019-01-23T08:57:10.994Z,2.10
2019-01-23T08:59:37.523Z,1.70
2019-01-23T09:02:03.941Z,3.17
2019-01-23T09:04:34.365Z,3.45
2019-01-23T09:07:00.665Z,2.95
2019-01-23T09:09:27.178Z,4.42
2019-01-23T09:11:58.450Z,3.40
2019-01-23T09:14:24.857Z,2.37
2019-01-23T09:16:51.288Z,3.37
2019-01-23T09:19:17.732Z,2.17
2019-01-23T09:21:44.240Z,5.95
2019-01-23T09:24:10.847Z,4.28
2019-01-23T09:26:37.177Z,3.87
2019-01-23T09:29:03.741Z,3.87
2019-01-23T09:31:33.943Z,6.25
2019-01-23T09:34:09.949Z,8.63
2019-01-23T09:36:43.120Z,5.37
2019-01-23T09:39:28.529Z,8.15
2019-01-23T09:42:23.093Z,4.92
2019-01-23T09:45:09.846Z,13.48
2019-01-23T09:47:39.953Z,18.15
2019-01-23T09:50:22.037Z,13.35
2019-01-23T09:53:01.540Z,13.80
2019-01-23T09:55:28.284Z,18.50
2019-01-23T09:57:54.783Z,12.13
2019-01-23T10:00:24.281Z,34.18
2019-01-23T10:02:51.788Z,51.20
2019-01-23T10:05:18.756Z,38.98
2019-01-23T10:07:46.669Z,25.72
2019-01-23T10:10:15.811Z,30.17
2019-01-23T10:12:42.203Z,20.45
2019-01-23T10:15:12.488Z,16.95
2019-01-23T10:17:39.105Z,25.25
2019-01-23T10:20:05.437Z,15.78
2019-01-23T10:22:31.946Z,11.97
2019-01-23T10:24:58.267Z,5.72
2019-01-23T10:27:24.684Z,6.85
2019-01-23T10:29:51.005Z,5.53
2019-01-23T10:32:17.539Z,9.63
2019-01-23T10:34:44.100Z,12.28
2019-01-23T10:37:10.553Z,6.45
2019-01-23T10:39:37.065Z,7.37
2019-01-23T10:42:03.817Z,6.30
2019-01-23T10:44:30.256Z,4.95
2019-01-23T10:46:56.666Z,2.85
2019-01-23T10:49:23.105Z,4.10
2019-01-23T10:51:49.724Z,9.00
2019-01-23T10:54:16.293Z,6.08
2019-01-23T10:56:43.040Z,5.15
2019-01-23T10:59:09.348Z,7.40
2019-01-23T11:01:41.094Z,4.00
2019-01-23T11:04:07.760Z,7.28
2019-01-23T11:06:34.509Z,5.75
2019-01-23T11:09:00.795Z,6.35
2019-01-23T11:11:27.441Z,7.08
2019-01-23T11:13:54.205Z,7.20
2019-01-23T11:16:20.674Z,3.42
2019-01-23T11:18:47.321Z,4.03
2019-01-23T11:21:14.032Z,5.70
2019-01-23T11:23:40.399Z,4.83
2019-01-23T11:26:07.022Z,4.97
2019-01-23T11:28:33.438Z,3.98
2019-01-23T11:30:59.753Z,3.67
2019-01-23T11:33:26.529Z,4.60
2019-01-23T11:35:53.042Z,1.65
2019-01-23T11:38:19.369Z,3.15
2019-01-23T11:40:45.895Z,2.27
2019-01-23T11:43:12.497Z,4.00
2019-01-23T11:45:39.020Z,1.62
2019-01-23T11:48:05.460Z,2.92
2019-01-23T11:50:32.002Z,7.37
2019-01-23T11:52:58.798Z,1.82
2019-01-23T11:55:25.686Z,14.05
2019-01-23T11:57:52.340Z,14.85
2019-01-23T12:00:21.830Z,11.00
2019-01-23T12:02:48.236Z,9.93
2019-01-23T12:05:16.347Z,11.55
2019-01-23T12:07:43.226Z,7.08
2019-01-23T12:10:13.091Z,5.05
2019-01-23T12:12:39.739Z,6.17
2019-01-23T12:15:09.374Z,4.62
2019-01-23T12:17:35.694Z,3.98
2019-01-23T12:20:04.130Z,7.35
2019-01-23T12:22:30.636Z,2.22
2019-01-23T12:24:57.077Z,1.90
2019-01-23T12:27:23.373Z,3.33
2019-01-23T12:29:49.787Z,0.78
2019-01-23T12:32:16.221Z,1.25
2019-01-23T12:34:42.527Z,3.15
2019-01-23T12:37:09.417Z,0.68
2019-01-23T12:39:35.834Z,2.62
2019-01-23T12:42:02.173Z,1.47
2019-01-23T12:44:28.462Z,3.75
2019-01-23T12:46:55.256Z,1.75
2019-01-23T12:49:21.681Z,1.77
2019-01-23T12:51:48.522Z,3.95
2019-01-23T12:54:15.041Z,1.67
2019-01-23T12:56:41.559Z,7.05
2019-01-23T12:59:07.965Z,7.00
2019-01-23T13:01:34.405Z,4.08
2019-01-23T13:04:00.917Z,4.50
2019-01-23T13:06:27.217Z,4.60
2019-01-23T13:09:00.665Z,5.72
2019-01-23T13:11:27.053Z,5.90
2019-01-23T13:13:53.469Z,6.05
2019-01-23T13:16:20.186Z,1.95
2019-01-23T13:18:46.490Z,3.87
2019-01-23T13:21:12.864Z,3.65
2019-01-23T13:23:39.179Z,2.25
2019-01-23T13:26:05.483Z,3.35
2019-01-23T13:28:32.165Z,6.33
2019-01-23T13:30:58.480Z,2.02
2019-01-23T13:33:24.828Z,5.22
2019-01-23T13:35:51.359Z,2.55
2019-01-23T13:38:17.657Z,2.00
2019-01-23T13:40:43.972Z,5.60
2019-01-23T13:43:10.582Z,2.12
2019-01-23T13:45:37.022Z,2.22
2019-01-23T13:48:04.982Z,3.05
2019-01-23T13:50:31.382Z,2.98
2019-01-23T13:52:57.697Z,3.92
2019-01-23T13:55:24.688Z,2.12
2019-01-23T13:57:51.234Z,4.37
2019-01-23T14:00:21.030Z,2.25
2019-01-23T14:02:47.338Z,1.25
2019-01-23T14:05:13.794Z,4.22
2019-01-23T14:07:42.013Z,1.17
2019-01-23T14:10:12.070Z,1.57
2019-01-23T14:12:38.665Z,1.27
2019-01-23T14:15:24.227Z,1.70
2019-01-23T14:17:50.521Z,4.75
2019-01-23T14:20:17.008Z,4.42
2019-01-23T14:22:43.281Z,3.00
2019-01-23T14:25:14.814Z,4.17
2019-01-23T14:27:41.287Z,2.72
2019-01-23T14:30:14.389Z,2.60
2019-01-23T14:32:40.892Z,4.17
2019-01-23T14:35:09.213Z,1.22
2019-01-23T14:37:35.775Z,1.87
2019-01-23T14:40:04.909Z,7.08
2019-01-23T14:42:31.295Z,1.37
2019-01-23T14:44:57.593Z,1.72
2019-01-23T14:47:23.913Z,2.17
2019-01-23T14:49:50.309Z,2.25
2019-01-23T14:52:16.677Z,1.80
2019-01-23T14:54:43.023Z,2.52
2019-01-23T14:57:09.325Z,2.15
2019-01-23T14:59:35.845Z,2.27
2019-01-23T15:02:02.243Z,5.03
2019-01-23T15:04:28.677Z,8.03
2019-01-23T15:06:55.081Z,7.45
2019-01-23T15:09:23.493Z,7.33
2019-01-23T15:11:50.269Z,6.67
2019-01-23T15:14:16.566Z,8.93
2019-01-23T15:16:43.392Z,3.85
2019-01-23T15:19:09.684Z,7.35
2019-01-23T15:21:36.189Z,3.87
2019-01-23T15:24:02.718Z,7.80
2019-01-23T15:26:29.118Z,4.50
2019-01-23T15:28:55.451Z,5.50
2019-01-23T15:31:21.859Z,5.25
2019-01-23T15:33:48.199Z,5.62
2019-01-23T15:36:14.818Z,5.72
2019-01-23T15:38:41.168Z,3.75
2019-01-23T15:41:07.710Z,5.95
2019-01-23T15:43:34.096Z,4.42
2019-01-23T15:46:00.389Z,6.20
2019-01-23T15:48:28.762Z,3.27
2019-01-23T15:50:55.061Z,3.25
2019-01-23T15:53:21.473Z,6.53
2019-01-23T15:55:48.362Z,7.53
2019-01-23T15:58:15.181Z,4.47
2019-01-23T16:00:41.490Z,3.12
2019-01-23T16:03:07.785Z,6.20
2019-01-23T16:05:34.100Z,3.90
2019-01-23T16:08:00.571Z,4.90
2019-01-23T16:10:27.879Z,6.85
2019-01-23T16:12:54.173Z,12.07
2019-01-23T16:15:23.473Z,17.77
2019-01-23T16:17:49.788Z,19.55
2019-01-23T16:20:16.089Z,35.45
2019-01-23T16:22:42.753Z,28.67
2019-01-23T16:25:14.892Z,28.07
2019-01-23T16:27:41.381Z,29.05
2019-01-23T16:30:11.613Z,23.38
2019-01-23T16:32:37.913Z,22.75
2019-01-23T16:35:07.111Z,19.50
2019-01-23T16:37:33.416Z,17.80
2019-01-23T16:40:00.472Z,13.20
2019-01-23T16:42:26.794Z,9.50
2019-01-23T16:44:53.196Z,15.53
2019-01-23T16:47:19.594Z,8.85
2019-01-23T16:49:46.169Z,8.45
2019-01-23T16:52:12.766Z,4.25
2019-01-23T16:54:39.274Z,4.30
2019-01-23T16:57:05.710Z,4.60
2019-01-23T16:59:32.830Z,33.13
2019-01-23T17:01:59.641Z,14.75
2019-01-23T17:04:25.933Z,30.12
2019-01-23T17:06:52.514Z,12.05
2019-01-23T17:09:18.854Z,12.37
2019-01-23T17:11:45.200Z,7.17
2019-01-23T17:14:11.635Z,10.35
2019-01-23T17:16:38.160Z,12.95
2019-01-23T17:19:04.794Z,13.05
2019-01-23T17:21:31.196Z,5.87
2019-01-23T17:23:57.484Z,3.25
2019-01-23T17:26:23.848Z,1.92
2019-01-23T17:28:50.117Z,2.80
2019-01-23T17:31:16.524Z,2.40
2019-01-23T17:33:42.816Z,3.17
2019-01-23T17:36:09.215Z,4.10
2019-01-23T17:38:35.749Z,2.77
2019-01-23T17:41:02.145Z,1.52
2019-01-23T17:43:29.350Z,1.12
2019-01-23T17:45:55.644Z,1.62
2019-01-23T17:48:21.936Z,1.32
2019-01-23T17:50:48.259Z,1.82
2019-01-23T17:53:14.645Z,6.70
2019-01-23T17:55:41.089Z,3.83
2019-01-23T17:58:09.647Z,5.30
2019-01-23T18:00:41.060Z,6.55
2019-01-23T18:03:07.477Z,8.85
2019-01-23T18:05:34.124Z,6.47
2019-01-23T18:08:02.648Z,5.97
2019-01-23T18:10:28.962Z,7.80
2019-01-23T18:12:55.252Z,4.30
2019-01-23T18:15:24.389Z,4.50
2019-01-23T18:17:50.712Z,12.10
2019-01-23T18:20:19.533Z,8.20
2019-01-23T18:22:46.397Z,12.70
2019-01-23T18:25:14.377Z,12.10
2019-01-23T18:27:46.459Z,4.83
2019-01-23T18:30:21.859Z,4.87
2019-01-23T18:32:49.078Z,3.42
2019-01-23T18:35:25.069Z,3.35
2019-01-23T18:37:55.298Z,2.65
2019-01-23T18:40:47.067Z,3.42
2019-01-23T18:43:33.664Z,1.60
2019-01-23T18:46:03.868Z,2.77
2019-01-23T18:49:03.977Z,4.12
2019-01-23T18:51:30.668Z,4.35
2019-01-23T18:53:57.142Z,1.45
2019-01-23T18:56:25.320Z,4.75
2019-01-23T18:58:52.480Z,2.90
2019-01-23T19:01:18.859Z,1.52
2019-01-23T19:03:45.269Z,2.50
2019-01-23T19:06:11.588Z,1.87
2019-01-23T19:08:38.175Z,2.70
2019-01-23T19:11:04.569Z,1.72
2019-01-23T19:13:31.011Z,3.05
2019-01-23T19:15:57.664Z,2.65
2019-01-23T19:18:24.089Z,4.87
2019-01-23T19:20:50.511Z,3.10
2019-01-23T19:23:16.793Z,3.52
2019-01-23T19:25:43.093Z,4.87
2019-01-23T19:28:09.398Z,3.00
2019-01-23T19:30:35.966Z,4.58
2019-01-23T19:33:02.457Z,5.42
2019-01-23T19:35:28.985Z,2.87
2019-01-23T19:37:55.392Z,6.30
2019-01-23T19:40:22.078Z,4.37
2019-01-23T19:42:48.507Z,5.50
2019-01-23T19:45:19.667Z,8.78
2019-01-23T19:47:46.126Z,5.58
2019-01-23T19:50:13.459Z,4.42
2019-01-23T19:52:40.104Z,3.80
2019-01-23T19:55:09.707Z,3.00
2019-01-23T19:57:36.326Z,3.55
2019-01-23T20:00:06.451Z,4.62
2019-01-23T20:02:32.767Z,5.83
2019-01-23T20:04:59.191Z,3.87
2019-01-23T20:07:25.517Z,2.55
2019-01-23T20:09:51.910Z,2.95
2019-01-23T20:12:18.202Z,3.05
2019-01-23T20:14:44.505Z,1.67
2019-01-23T20:17:10.806Z,2.08
2019-01-23T20:19:37.125Z,2.08
2019-01-23T20:22:03.428Z,4.30
2019-01-23T20:24:30.465Z,2.17
2019-01-23T20:26:56.774Z,12.33
2019-01-23T20:29:23.065Z,4.15
2019-01-23T20:31:49.403Z,4.33
2019-01-23T20:34:15.690Z,4.90
2019-01-23T20:36:41.989Z,2.70
2019-01-23T20:39:08.894Z,12.45
2019-01-23T20:41:35.204Z,9.18
2019-01-23T20:44:01.647Z,3.20
2019-01-23T20:46:28.052Z,5.30
2019-01-23T20:48:54.337Z,3.22
2019-01-23T20:51:20.641Z,2.35
2019-01-23T20:53:46.944Z,1.70
2019-01-23T20:56:13.352Z,4.75
2019-01-23T20:58:39.737Z,5.80
2019-01-23T21:01:06.151Z,4.10
2019-01-23T21:03:35.127Z,2.45
2019-01-23T21:06:00.642Z,3.47
2019-01-23T21:08:26.958Z,2.50
2019-01-23T21:10:53.254Z,22.15
2019-01-23T21:13:19.662Z,4.65
2019-01-23T21:15:45.955Z,21.95
2019-01-23T21:18:12.250Z,19.92
2019-01-23T21:20:38.658Z,9.13
2019-01-23T21:23:05.088Z,9.25
2019-01-23T21:25:31.386Z,8.55
2019-01-23T21:27:57.682Z,7.17
2019-01-23T21:30:25.901Z,9.43
2019-01-23T21:32:52.653Z,3.27
2019-01-23T21:35:20.270Z,3.33
2019-01-23T21:37:46.859Z,6.22
2019-01-23T21:40:21.821Z,9.65
2019-01-23T21:42:48.144Z,10.18
2019-01-23T21:45:15.639Z,7.92
2019-01-23T21:47:42.156Z,2.58
2019-01-23T21:50:11.674Z,4.95
2019-01-23T21:52:37.968Z,6.12
2019-01-23T21:55:19.542Z,3.90
2019-01-23T21:57:45.989Z,5.03
2019-01-23T22:00:18.730Z,4.17
2019-01-23T22:02:45.054Z,5.10
2019-01-23T22:05:13.153Z,4.65
2019-01-23T22:07:39.828Z,3.42
2019-01-23T22:10:09.181Z,6.25
2019-01-23T22:12:35.590Z,5.00
2019-01-23T22:15:02.010Z,3.87
2019-01-23T22:17:28.496Z,4.28
2019-01-23T22:19:55.029Z,2.92
2019-01-23T22:22:21.329Z,4.53
2019-01-23T22:24:47.813Z,5.42
2019-01-23T22:27:14.122Z,3.33
2019-01-23T22:29:40.414Z,3.90
2019-01-23T22:32:06.729Z,2.83
2019-01-23T22:34:33.017Z,3.35
2019-01-23T22:36:59.421Z,3.40
2019-01-23T22:39:25.724Z,4.28
2019-01-23T22:41:52.058Z,3.22
2019-01-23T22:44:18.465Z,3.77
2019-01-23T22:46:44.970Z,3.40
2019-01-23T22:49:11.257Z,2.75
2019-01-23T22:51:37.564Z,2.95
2019-01-23T22:54:03.956Z,3.65
2019-01-23T22:56:30.298Z,2.65
2019-01-23T22:58:56.707Z,3.62
2019-01-23T23:01:24.091Z,4.72
2019-01-23T23:03:50.507Z,4.15
2019-01-23T23:06:16.797Z,2.72
2019-01-23T23:08:43.117Z,2.47
2019-01-23T23:11:09.713Z,3.95
2019-01-23T23:13:36.003Z,2.85
2019-01-23T23:16:02.593Z,5.33
2019-01-23T23:18:29.184Z,3.05
2019-01-23T23:20:55.523Z,3.33
2019-01-23T23:23:21.799Z,3.70
2019-01-23T23:25:48.209Z,6.78
2019-01-23T23:28:14.512Z,2.98
2019-01-23T23:30:40.818Z,3.92
2019-01-23T23:33:07.252Z,2.33
2019-01-23T23:35:33.662Z,3.12
2019-01-23T23:37:59.950Z,3.35
2019-01-23T23:40:26.463Z,3.42
2019-01-23T23:42:53.201Z,3.52
2019-01-23T23:45:19.594Z,2.62
2019-01-23T23:47:45.886Z,2.90
2019-01-23T23:50:14.825Z,6.00
2019-01-23T23:52:41.181Z,5.17
2019-01-23T23:55:09.640Z,2.67
2019-01-23T23:57:36.045Z,3.20
